Time;durP1;ratioP1;P1;durP2;ratioP2;P2;SDS_P1;SDS_P2;PMS_P1;PMS_P2;Temp;Humidity;BMP_temperature;BMP_pressure;BME280_temperature;BME280_humidity;BME280_pressure;Samples;Min_cycle;Max_cycle;Signal;HPM_P1;HPM_P2
2022/03/06 00:00:56;;;;;;;;;;;;;;;0.12;87.34;98695.33;1685766;85;24774;-83
2022/03/06 00:03:22;;;;;;;;;;;;;;;0.05;87.34;98692.52;1719604;81;22002;-83
2022/03/06 00:05:50;;;;;;;;;;;;;;;-0.01;87.33;98688.36;1687458;85;26870;-83
2022/03/06 00:08:16;;;;;;;;;;;;;;;-0.02;87.37;98691.38;1687431;85;24411;-83
2022/03/06 00:10:42;;;;;;;;;;;;;;;0.00;87.48;98688.77;1682105;85;20212;-83
2022/03/06 00:13:09;;;;;;;;;;;;;;;-0.01;87.56;98692.22;1687437;84;24800;-83
2022/03/06 00:15:35;;;;;;;;;;;;;;;0.00;87.69;98687.02;1719617;81;22167;-82
2022/03/06 00:18:01;;;;;;;;;;;;;;;0.03;87.82;98687.41;1686183;84;26037;-82
2022/03/06 00:20:27;;;;;;;;;;;;;;;0.03;87.92;98682.70;1687329;85;23672;-83
2022/03/06 00:22:53;;;;;;;;;;;;;;;0.08;88.12;98679.12;1683178;85;20543;-82
2022/03/06 00:25:19;;;;;;;;;;;;;;;0.11;88.30;98685.95;1685804;85;24777;-82
2022/03/06 00:27:45;;;;;;;;;;;;;;;0.11;88.45;98682.91;1685529;84;21908;-83
2022/03/06 00:30:11;;;;;;;;;;;;;;;0.07;88.48;98687.73;1685377;84;26055;-83
2022/03/06 00:32:37;;;;;;;;;;;;;;;0.03;88.50;98689.13;1690618;84;24432;-83
2022/03/06 00:35:04;;;;;;;;;;;;;;;0.08;88.64;98680.86;1690659;84;20320;-82
2022/03/06 00:37:30;;;;;;;;;;;;;;;0.22;88.95;98675.77;1690414;84;24823;-83
2022/03/06 00:39:56;;;;;;;;;;;;;;;0.22;89.08;98677.53;1687329;84;22064;-83
2022/03/06 00:42:23;;;;;;;;;;;;;;;0.17;89.13;98683.20;1686781;84;26058;-84
2022/03/06 00:44:52;;;;;;;;;;;;;;;0.18;89.24;98675.45;1689813;83;24403;-83
2022/03/06 00:47:18;;;;;;;;;;;;;;;0.15;89.30;98681.13;1689376;84;20479;-84
2022/03/06 00:49:44;;;;;;;;;;;;;;;0.07;89.27;98677.44;1688699;84;24835;-83
2022/03/06 00:52:11;;;;;;;;;;;;;;;0.07;89.33;98672.29;1690715;84;21910;-83
2022/03/06 00:54:40;;;;;;;;;;;;;;;0.00;89.34;98673.34;1689120;84;26007;-82
2022/03/06 00:57:07;;;;;;;;;;;;;;;-0.04;89.33;98674.27;1689928;84;24595;-83
2022/03/06 00:59:34;;;;;;;;;;;;;;;-0.08;89.33;98674.80;1689409;84;20359;-83
2022/03/06 01:02:04;;;;;;;;;;;;;;;-0.11;89.37;98675.31;1689900;84;24802;-83
2022/03/06 01:04:31;;;;;;;;;;;;;;;-0.09;89.48;98674.39;1690090;84;22117;-83
2022/03/06 01:06:57;;;;;;;;;;;;;;;-0.10;89.56;98675.70;1691396;84;26123;-82
2022/03/06 01:09:23;;;;;;;;;;;;;;;-0.15;89.60;98674.52;1716924;82;24266;-82
2022/03/06 01:11:49;;;;;;;;;;;;;;;-0.18;89.64;98669.91;1688170;84;20247;-82
2022/03/06 01:14:15;;;;;;;;;;;;;;;-0.28;89.63;98669.71;1691391;84;24848;-82
2022/03/06 01:16:41;;;;;;;;;;;;;;;-0.28;89.64;98681.28;1687158;84;21981;-82
2022/03/06 01:19:07;;;;;;;;;;;;;;;-0.30;89.69;98674.03;1691239;84;25985;-82
2022/03/06 01:21:33;;;;;;;;;;;;;;;-0.29;89.80;98673.16;1688457;84;24469;-83
2022/03/06 01:23:59;;;;;;;;;;;;;;;-0.26;89.93;98673.08;1691397;84;20204;-82
2022/03/06 01:26:25;;;;;;;;;;;;;;;-0.26;90.05;98668.78;1690928;84;24728;-82
2022/03/06 01:28:51;;;;;;;;;;;;;;;-0.25;90.20;98669.63;1689569;84;22019;-82
2022/03/06 01:31:17;;;;;;;;;;;;;;;-0.35;90.19;98676.71;1686791;83;26013;-81
2022/03/06 01:33:44;;;;;;;;;;;;;;;-0.36;90.22;98677.59;1680733;85;24612;-81
2022/03/06 01:36:09;;;;;;;;;;;;;;;-0.37;90.29;98675.89;1677402;85;20247;-81
2022/03/06 01:38:36;;;;;;;;;;;;;;;-0.39;90.36;98679.39;1681461;85;20268;-81
2022/03/06 01:41:02;;;;;;;;;;;;;;;-0.44;90.39;98674.36;1686506;84;22048;-82
2022/03/06 01:43:31;;;;;;;;;;;;;;;-0.46;90.48;98672.25;1683327;84;26697;-82
2022/03/06 01:46:03;;;;;;;;;;;;;;;-0.50;90.54;98673.20;1673088;84;25251;-82
2022/03/06 01:48:29;;;;;;;;;;;;;;;-0.53;90.58;98672.81;1675824;85;20178;-82
2022/03/06 01:50:56;;;;;;;;;;;;;;;-0.55;90.64;98673.75;1672704;84;24783;-82
2022/03/06 01:53:22;;;;;;;;;;;;;;;-0.55;90.75;98672.02;1683242;84;22080;-82
2022/03/06 01:55:48;;;;;;;;;;;;;;;-0.59;90.83;98670.81;1674741;85;25974;-81
2022/03/06 01:58:19;;;;;;;;;;;;;;;-0.64;90.87;98669.63;1678444;84;24480;-82
2022/03/06 02:00:51;;;;;;;;;;;;;;;-0.65;90.97;98669.66;1679099;85;20460;-82
2022/03/06 02:03:18;;;;;;;;;;;;;;;-0.70;91.05;98663.33;1673875;84;24852;-81
2022/03/06 02:05:50;;;;;;;;;;;;;;;-0.74;91.10;98669.42;1670790;85;21965;-82
2022/03/06 02:08:16;;;;;;;;;;;;;;;-0.79;91.15;98672.96;1681967;84;26652;-82
2022/03/06 02:10:44;;;;;;;;;;;;;;;-0.87;91.19;98667.97;1675243;85;25237;-81
2022/03/06 02:13:10;;;;;;;;;;;;;;;-0.90;91.28;98671.46;1675255;85;20277;-82
2022/03/06 02:15:36;;;;;;;;;;;;;;;-0.87;91.45;98669.25;1675182;85;24903;-82
2022/03/06 02:18:02;;;;;;;;;;;;;;;-0.87;91.58;98667.97;1675442;85;22059;-81
2022/03/06 02:20:28;;;;;;;;;;;;;;;-0.91;91.69;98663.34;1659524;85;26096;-81
2022/03/06 02:22:56;;;;;;;;;;;;;;;-0.90;91.86;98661.19;1663573;85;24647;-81
2022/03/06 02:25:27;;;;;;;;;;;;;;;-0.88;92.02;98660.73;1663828;85;20595;-81
2022/03/06 02:27:54;;;;;;;;;;;;;;;-0.82;92.23;98665.33;1664702;84;24827;-82
2022/03/06 02:30:22;;;;;;;;;;;;;;;-0.78;92.48;98662.66;1665787;84;21994;-83
2022/03/06 02:32:49;;;;;;;;;;;;;;;-0.74;92.69;98654.44;1678009;83;26136;-83
2022/03/06 02:35:16;;;;;;;;;;;;;;;-0.70;92.90;98656.91;1673933;83;24544;-83
2022/03/06 02:37:45;;;;;;;;;;;;;;;-0.63;93.16;98652.05;1678592;84;20204;-83
2022/03/06 02:40:12;;;;;;;;;;;;;;;-0.65;93.31;98655.08;1677059;83;24888;-84
2022/03/06 02:42:42;;;;;;;;;;;;;;;-0.68;93.38;98655.59;1675039;84;21452;-83
2022/03/06 02:45:13;;;;;;;;;;;;;;;-0.73;93.44;98649.71;1678843;84;26068;-84
2022/03/06 02:47:39;;;;;;;;;;;;;;;-0.77;93.46;98645.09;1685033;84;24492;-84
2022/03/06 02:50:13;;;;;;;;;;;;;;;-0.76;93.57;98647.22;1679809;84;20494;-84
2022/03/06 02:52:48;;;;;;;;;;;;;;;-0.80;93.60;98649.42;1679249;83;24966;-84
2022/03/06 02:55:15;;;;;;;;;;;;;;;-0.90;93.60;98650.06;1678501;84;22079;-83
2022/03/06 02:57:42;;;;;;;;;;;;;;;-0.94;93.63;98643.30;1679219;84;26124;-83
2022/03/06 03:00:10;;;;;;;;;;;;;;;-0.98;93.67;98647.64;1676083;83;24507;-84
2022/03/06 03:02:37;;;;;;;;;;;;;;;-1.03;93.68;98647.33;1672381;84;20501;-84
2022/03/06 03:05:04;;;;;;;;;;;;;;;-1.08;93.71;98644.01;1674903;84;24744;-83
2022/03/06 03:07:36;;;;;;;;;;;;;;;-1.10;93.80;98647.06;1672990;84;22031;-84
2022/03/06 03:10:02;;;;;;;;;;;;;;;-1.14;93.84;98644.13;1681398;84;26249;-84
2022/03/06 03:12:28;;;;;;;;;;;;;;;-1.13;93.96;98647.11;1678946;83;24491;-83
2022/03/06 03:14:54;;;;;;;;;;;;;;;-1.13;94.07;98653.53;1680815;83;20294;-84
2022/03/06 03:17:26;;;;;;;;;;;;;;;-1.14;94.21;98644.97;1681092;84;24799;-84
2022/03/06 03:19:52;;;;;;;;;;;;;;;-1.11;94.35;98653.07;1700759;82;21901;-85
2022/03/06 03:22:18;;;;;;;;;;;;;;;-1.13;94.48;98655.66;1682537;84;25965;-84
2022/03/06 03:24:44;;;;;;;;;;;;;;;-1.11;94.63;98662.91;1674919;83;24399;-85
2022/03/06 03:27:10;;;;;;;;;;;;;;;-1.14;94.74;98663.38;1679692;83;20295;-85
2022/03/06 03:29:36;;;;;;;;;;;;;;;-1.08;94.93;98659.41;1680539;84;24778;-84
2022/03/06 03:32:03;;;;;;;;;;;;;;;-0.96;95.25;98662.59;1678323;83;22707;-84
2022/03/06 03:34:29;;;;;;;;;;;;;;;-0.91;95.52;98660.77;1675520;83;26072;-84
2022/03/06 03:36:55;;;;;;;;;;;;;;;-0.75;95.89;98663.87;1671390;84;24600;-84
2022/03/06 03:39:21;;;;;;;;;;;;;;;-0.66;96.23;98663.70;1673542;84;20203;-81
2022/03/06 03:41:47;;;;;;;;;;;;;;;-0.68;96.38;98666.73;1676767;84;24809;-82
2022/03/06 03:44:13;;;;;;;;;;;;;;;-0.73;96.44;98665.98;1674564;84;22740;-82
2022/03/06 03:46:39;;;;;;;;;;;;;;;-0.74;96.55;98665.56;1685184;84;25840;-82
2022/03/06 03:49:05;;;;;;;;;;;;;;;-0.75;96.60;98668.16;1683922;85;20802;-82
2022/03/06 03:51:31;;;;;;;;;;;;;;;-0.76;96.67;98673.73;1684739;85;20207;-81
2022/03/06 03:53:58;;;;;;;;;;;;;;;-0.80;96.70;98668.26;1685681;85;24774;-82
2022/03/06 03:56:24;;;;;;;;;;;;;;;-0.81;96.74;98669.13;1682600;85;22558;-81
2022/03/06 03:58:50;;;;;;;;;;;;;;;-0.74;96.92;98669.42;1685621;85;26203;-82
2022/03/06 04:01:17;;;;;;;;;;;;;;;-0.67;97.15;98667.14;1719585;81;24444;-81
2022/03/06 04:03:43;;;;;;;;;;;;;;;-0.66;97.32;98670.13;1683161;85;20806;-82
2022/03/06 04:06:10;;;;;;;;;;;;;;;-0.65;97.44;98672.22;1684828;85;24739;-82
2022/03/06 04:08:38;;;;;;;;;;;;;;;-0.68;97.52;98671.02;1686919;85;22062;-82
2022/03/06 04:11:05;;;;;;;;;;;;;;;-0.71;97.60;98670.62;1683935;85;25615;-82
2022/03/06 04:13:31;;;;;;;;;;;;;;;-0.74;97.65;98675.84;1681996;85;24202;-81
2022/03/06 04:15:58;;;;;;;;;;;;;;;-0.74;97.73;98677.13;1683764;85;20243;-82
2022/03/06 04:18:24;;;;;;;;;;;;;;;-0.76;97.82;98676.77;1688948;85;24794;-82
2022/03/06 04:20:50;;;;;;;;;;;;;;;-0.78;97.91;98674.22;1684657;85;22013;-82
2022/03/06 04:23:16;;;;;;;;;;;;;;;-0.81;97.98;98675.55;1685374;85;26062;-82
2022/03/06 04:25:42;;;;;;;;;;;;;;;-0.77;98.11;98676.36;1683075;85;24544;-82
2022/03/06 04:28:08;;;;;;;;;;;;;;;-0.72;98.29;98675.82;1685424;84;20735;-82
2022/03/06 04:30:34;;;;;;;;;;;;;;;-0.71;98.43;98676.23;1686193;84;24716;-82
2022/03/06 04:33:01;;;;;;;;;;;;;;;-0.69;98.62;98679.16;1680416;84;21969;-82
2022/03/06 04:35:27;;;;;;;;;;;;;;;-0.69;98.74;98677.88;1677252;85;25993;-82
2022/03/06 04:37:53;;;;;;;;;;;;;;;-0.69;98.83;98675.30;1680628;85;24429;-82
2022/03/06 04:40:19;;;;;;;;;;;;;;;-0.70;98.93;98679.19;1682573;85;20172;-81
2022/03/06 04:42:45;;;;;;;;;;;;;;;-0.69;99.05;98677.88;1680844;85;24798;-81
2022/03/06 04:45:11;;;;;;;;;;;;;;;-0.66;99.18;98671.84;1681136;83;21971;-81
2022/03/06 04:47:37;;;;;;;;;;;;;;;-0.58;99.42;98674.64;1676407;85;26196;-81
2022/03/06 04:50:04;;;;;;;;;;;;;;;-0.64;99.47;98670.91;1675569;85;24577;-81
2022/03/06 04:52:30;;;;;;;;;;;;;;;-0.66;99.54;98675.27;1680205;85;20303;-82
2022/03/06 04:54:57;;;;;;;;;;;;;;;-0.71;99.56;98671.91;1682552;85;24910;-82
2022/03/06 04:57:23;;;;;;;;;;;;;;;-0.69;99.65;98666.31;1681260;83;22626;-81
2022/03/06 04:59:49;;;;;;;;;;;;;;;-0.70;99.74;98665.90;1706117;83;25893;-81
2022/03/06 05:02:15;;;;;;;;;;;;;;;-0.65;99.87;98672.22;1706878;83;24286;-81
2022/03/06 05:04:41;;;;;;;;;;;;;;;-0.65;99.98;98666.64;1678172;85;20276;-81
2022/03/06 05:07:07;;;;;;;;;;;;;;;-0.63;100.00;98672.61;1699290;83;24752;-82
2022/03/06 05:09:34;;;;;;;;;;;;;;;-0.59;100.00;98668.23;1679009;85;22049;-81
2022/03/06 05:12:00;;;;;;;;;;;;;;;-0.59;100.00;98666.52;1680848;85;26957;-81
2022/03/06 05:14:27;;;;;;;;;;;;;;;-0.55;100.00;98666.88;1679062;85;24510;-81
2022/03/06 05:16:53;;;;;;;;;;;;;;;-0.56;100.00;98667.75;1682543;85;20317;-81
2022/03/06 05:19:19;;;;;;;;;;;;;;;-0.55;100.00;98664.31;1675255;85;24722;-85
2022/03/06 05:21:45;;;;;;;;;;;;;;;-0.55;100.00;98664.75;1678853;85;22056;-85
2022/03/06 05:24:11;;;;;;;;;;;;;;;-0.55;100.00;98667.31;1680984;85;26700;-84
2022/03/06 05:26:38;;;;;;;;;;;;;;;-0.56;100.00;98665.19;1672953;84;24468;-85
2022/03/06 05:29:04;;;;;;;;;;;;;;;-0.56;100.00;98666.91;1680676;84;20539;-85
2022/03/06 05:31:30;;;;;;;;;;;;;;;-0.56;100.00;98669.04;1678585;83;24824;-84
2022/03/06 05:33:58;;;;;;;;;;;;;;;-0.54;100.00;98667.70;1682121;85;20349;-84
2022/03/06 05:36:24;;;;;;;;;;;;;;;-0.51;100.00;98672.79;1675587;84;26014;-84
2022/03/06 05:38:50;;;;;;;;;;;;;;;-0.55;100.00;98672.02;1672663;85;24380;-84
2022/03/06 05:41:17;;;;;;;;;;;;;;;-0.56;100.00;98673.33;1677754;85;20692;-84
2022/03/06 05:43:43;;;;;;;;;;;;;;;-0.56;100.00;98668.19;1674812;84;24906;-84
2022/03/06 05:46:09;;;;;;;;;;;;;;;-0.58;100.00;98669.50;1682008;85;21954;-83
2022/03/06 05:48:35;;;;;;;;;;;;;;;-0.59;100.00;98671.66;1682153;85;26020;-83
2022/03/06 05:51:02;;;;;;;;;;;;;;;-0.57;100.00;98672.92;1681308;85;24396;-84
2022/03/06 05:53:28;;;;;;;;;;;;;;;-0.51;100.00;98672.79;1680372;85;20495;-83
2022/03/06 05:55:54;;;;;;;;;;;;;;;-0.47;100.00;98671.40;1703485;83;24522;-83
2022/03/06 05:58:20;;;;;;;;;;;;;;;-0.38;100.00;98672.09;1679622;84;22050;-83
2022/03/06 06:00:46;;;;;;;;;;;;;;;-0.27;100.00;98667.09;1674607;85;26089;-83
2022/03/06 06:03:12;;;;;;;;;;;;;;;-0.14;100.00;98671.08;1681105;85;24518;-83
2022/03/06 06:05:38;;;;;;;;;;;;;;;-0.12;100.00;98671.90;1672875;85;20214;-83
2022/03/06 06:08:04;;;;;;;;;;;;;;;-0.15;100.00;98669.81;1677194;85;24747;-83
2022/03/06 06:10:31;;;;;;;;;;;;;;;-0.16;100.00;98678.41;1674101;85;21968;-83
2022/03/06 06:12:57;;;;;;;;;;;;;;;-0.13;100.00;98674.06;1671715;85;26728;-85
2022/03/06 06:15:23;;;;;;;;;;;;;;;-0.07;100.00;98681.63;1672571;83;24585;-82
2022/03/06 06:17:49;;;;;;;;;;;;;;;-0.07;100.00;98675.64;1675925;85;20330;-81
2022/03/06 06:20:15;;;;;;;;;;;;;;;-0.05;100.00;98680.30;1684176;85;24782;-81
2022/03/06 06:22:41;;;;;;;;;;;;;;;0.03;100.00;98674.54;1682498;85;22123;-81
2022/03/06 06:25:08;;;;;;;;;;;;;;;0.02;100.00;98680.56;1681358;84;25986;-81
2022/03/06 06:27:34;;;;;;;;;;;;;;;0.02;100.00;98679.71;1699980;83;24261;-82
2022/03/06 06:30:00;;;;;;;;;;;;;;;-0.01;100.00;98685.79;1682627;84;20224;-82
2022/03/06 06:32:26;;;;;;;;;;;;;;;-0.02;100.00;98686.67;1680531;84;24795;-81
2022/03/06 06:34:52;;;;;;;;;;;;;;;-0.04;100.00;98682.84;1677943;84;22117;-81
2022/03/06 06:37:18;;;;;;;;;;;;;;;-0.04;100.00;98684.13;1678369;83;26055;-82
2022/03/06 06:39:45;;;;;;;;;;;;;;;-0.08;100.00;98683.80;1665582;85;25058;-82
2022/03/06 06:42:11;;;;;;;;;;;;;;;-0.08;100.00;98685.52;1658557;84;20510;-83
2022/03/06 06:44:37;;;;;;;;;;;;;;;-0.14;100.00;98685.66;1653213;84;24811;-82
2022/03/06 06:47:03;;;;;;;;;;;;;;;-0.20;100.00;98693.08;1665105;85;21933;-82
2022/03/06 06:49:30;;;;;;;;;;;;;;;-0.25;100.00;98690.20;1662295;85;26646;-82
2022/03/06 06:51:56;;;;;;;;;;;;;;;-0.28;100.00;98688.56;1651019;85;24520;-82
2022/03/06 06:54:22;;;;;;;;;;;;;;;-0.33;100.00;98689.11;1653419;85;20541;-82
2022/03/06 06:56:49;;;;;;;;;;;;;;;-0.35;100.00;98691.29;1656895;85;24802;-82
2022/03/06 06:59:21;;;;;;;;;;;;;;;-0.35;100.00;98693.86;1649454;85;21976;-82
2022/03/06 07:01:47;;;;;;;;;;;;;;;-0.35;100.00;98696.43;1653385;85;26054;-83
2022/03/06 07:04:13;;;;;;;;;;;;;;;-0.34;100.00;98696.84;1655593;85;24445;-83
2022/03/06 07:06:39;;;;;;;;;;;;;;;-0.36;100.00;98701.16;1663839;84;20228;-82
2022/03/06 07:09:05;;;;;;;;;;;;;;;-0.43;100.00;98693.58;1657287;85;20307;-82
2022/03/06 07:11:31;;;;;;;;;;;;;;;-0.43;100.00;98694.87;1656991;84;22074;-83
2022/03/06 07:13:57;;;;;;;;;;;;;;;-0.42;100.00;98691.42;1652848;85;26905;-83
2022/03/06 07:16:23;;;;;;;;;;;;;;;-0.48;100.00;98694.12;1621618;87;24374;-82
2022/03/06 07:18:49;;;;;;;;;;;;;;;-0.49;100.00;98689.85;1640269;87;20276;-82
2022/03/06 07:21:15;;;;;;;;;;;;;;;-0.54;100.00;98694.25;1635988;87;24802;-82
2022/03/06 07:23:41;;;;;;;;;;;;;;;-0.55;100.00;98692.58;1635447;87;21969;-84
2022/03/06 07:26:08;;;;;;;;;;;;;;;-0.53;100.00;98697.67;1630340;87;25969;-85
2022/03/06 07:28:34;;;;;;;;;;;;;;;-0.49;100.00;98696.72;1636423;87;24485;-84
2022/03/06 07:31:01;;;;;;;;;;;;;;;-0.49;100.00;98700.57;1631204;86;20485;-84
2022/03/06 07:33:27;;;;;;;;;;;;;;;-0.52;100.00;98696.80;1659410;84;24896;-84
2022/03/06 07:35:53;;;;;;;;;;;;;;;-0.51;100.00;98701.06;1657421;84;21960;-84
2022/03/06 07:38:21;;;;;;;;;;;;;;;-0.47;100.00;98700.11;1650991;85;26732;-84
2022/03/06 07:40:47;;;;;;;;;;;;;;;-0.45;100.00;98699.66;1658798;85;24417;-84
2022/03/06 07:43:13;;;;;;;;;;;;;;;-0.43;100.00;98701.73;1659332;84;20241;-84
2022/03/06 07:45:39;;;;;;;;;;;;;;;-0.42;100.00;98701.70;1656644;84;24726;-84
2022/03/06 07:48:05;;;;;;;;;;;;;;;-0.41;100.00;98697.41;1657607;85;21991;-84
2022/03/06 07:50:31;;;;;;;;;;;;;;;-0.42;100.00;98697.00;1660468;85;26006;-84
2022/03/06 07:52:57;;;;;;;;;;;;;;;-0.41;100.00;98698.70;1655435;85;24503;-85
2022/03/06 07:55:23;;;;;;;;;;;;;;;-0.39;100.00;98699.52;1662285;84;20167;-84
2022/03/06 07:57:50;;;;;;;;;;;;;;;-0.40;100.00;98695.69;1659127;84;24874;-85
2022/03/06 08:00:16;;;;;;;;;;;;;;;-0.40;100.00;98695.25;1664994;84;22175;-84
2022/03/06 08:02:42;;;;;;;;;;;;;;;-0.40;100.00;98688.83;1662557;85;26142;-85
2022/03/06 08:05:08;;;;;;;;;;;;;;;-0.38;100.00;98688.80;1662885;84;24358;-85
2022/03/06 08:07:34;;;;;;;;;;;;;;;-0.37;100.00;98689.18;1662542;85;20225;-84
2022/03/06 08:10:04;;;;;;;;;;;;;;;-0.38;100.00;98690.09;1653065;84;24762;-84
2022/03/06 08:12:29;;;;;;;;;;;;;;;-0.41;100.00;98692.27;1658814;85;22084;-85
2022/03/06 08:14:55;;;;;;;;;;;;;;;-0.38;100.00;98690.91;1659218;85;25877;-84
2022/03/06 08:17:21;;;;;;;;;;;;;;;-0.37;100.00;98690.47;1660218;84;24490;-85
2022/03/06 08:19:47;;;;;;;;;;;;;;;-0.38;100.00;98690.91;1656484;84;20374;-84
2022/03/06 08:22:13;;;;;;;;;;;;;;;-0.37;100.00;98687.45;1657221;84;24805;-85
2022/03/06 08:24:40;;;;;;;;;;;;;;;-0.38;100.00;98687.52;1658185;84;22229;-84
2022/03/06 08:27:06;;;;;;;;;;;;;;;-0.37;100.00;98686.61;1654008;85;26011;-83
2022/03/06 08:29:32;;;;;;;;;;;;;;;-0.39;100.00;98686.66;1658307;84;24445;-85
2022/03/06 08:31:58;;;;;;;;;;;;;;;-0.39;100.00;98689.23;1655523;84;20257;-84
2022/03/06 08:34:24;;;;;;;;;;;;;;;-0.36;100.00;98688.30;1648328;85;24988;-84
2022/03/06 08:36:50;;;;;;;;;;;;;;;-0.33;100.00;98688.26;1652412;84;22086;-84
2022/03/06 08:39:16;;;;;;;;;;;;;;;-0.31;100.00;98684.75;1656839;84;26045;-84
2022/03/06 08:41:42;;;;;;;;;;;;;;;-0.28;100.00;98687.71;1654201;84;24416;-84
2022/03/06 08:44:09;;;;;;;;;;;;;;;-0.26;100.00;98686.78;1647256;84;20258;-85
2022/03/06 08:46:35;;;;;;;;;;;;;;;-0.26;100.00;98685.94;1658082;84;24744;-85
2022/03/06 08:49:01;;;;;;;;;;;;;;;-0.26;100.00;98685.94;1645558;84;22008;-83
2022/03/06 08:51:27;;;;;;;;;;;;;;;-0.24;100.00;98681.61;1647084;85;25969;-83
2022/03/06 08:53:53;;;;;;;;;;;;;;;-0.21;100.00;98691.38;1653668;84;24628;-83
2022/03/06 08:56:19;;;;;;;;;;;;;;;-0.21;100.00;98686.23;1654123;84;20475;-83
2022/03/06 08:58:45;;;;;;;;;;;;;;;-0.19;99.85;98690.06;1647832;84;24885;-83
2022/03/06 09:01:11;;;;;;;;;;;;;;;-0.15;99.71;98685.25;1641002;84;21934;-83
2022/03/06 09:03:37;;;;;;;;;;;;;;;-0.17;99.46;98689.60;1650955;86;26056;-84
2022/03/06 09:06:04;;;;;;;;;;;;;;;-0.15;99.18;98689.11;1649677;84;24383;-83
2022/03/06 09:08:30;;;;;;;;;;;;;;;-0.11;99.00;98686.89;1649792;84;20332;-83
2022/03/06 09:10:56;;;;;;;;;;;;;;;-0.16;98.70;98686.97;1647911;86;24712;-83
2022/03/06 09:13:22;;;;;;;;;;;;;;;-0.18;98.33;98682.33;1663169;84;20316;-83
2022/03/06 09:15:48;;;;;;;;;;;;;;;-0.16;98.00;98681.83;1639324;86;26722;-83
2022/03/06 09:18:14;;;;;;;;;;;;;;;-0.16;97.69;98680.98;1645810;84;24517;-83
2022/03/06 09:20:41;;;;;;;;;;;;;;;-0.15;97.43;98689.11;1646038;85;20257;-83
2022/03/06 09:23:09;;;;;;;;;;;;;;;-0.16;97.16;98684.40;1650004;86;24763;-82
2022/03/06 09:25:35;;;;;;;;;;;;;;;-0.21;96.77;98683.66;1648003;86;22010;-83
2022/03/06 09:28:01;;;;;;;;;;;;;;;-0.21;96.43;98686.67;1647193;84;26156;-83
2022/03/06 09:30:28;;;;;;;;;;;;;;;-0.20;96.17;98675.52;1656142;84;24538;-83
2022/03/06 09:32:54;;;;;;;;;;;;;;;-0.17;96.01;98676.30;1646052;84;20392;-83
2022/03/06 09:35:20;;;;;;;;;;;;;;;-0.17;95.86;98681.45;1642957;86;24921;-83
2022/03/06 09:37:46;;;;;;;;;;;;;;;-0.22;95.57;98683.72;1645027;86;21982;-85
2022/03/06 09:40:13;;;;;;;;;;;;;;;-0.25;95.30;98684.63;1650661;84;26180;-82
2022/03/06 09:42:39;;;;;;;;;;;;;;;-0.26;95.06;98682.92;1647300;86;24608;-83
2022/03/06 09:45:08;;;;;;;;;;;;;;;-0.25;94.93;98681.20;1680967;83;20265;-83
2022/03/06 09:47:35;;;;;;;;;;;;;;;-0.25;94.78;98685.06;1651159;86;24733;-83
2022/03/06 09:50:01;;;;;;;;;;;;;;;-0.26;94.63;98677.78;1647473;86;21923;-83
2022/03/06 09:52:28;;;;;;;;;;;;;;;-0.25;94.51;98682.48;1646319;84;25972;-84
2022/03/06 09:54:56;;;;;;;;;;;;;;;-0.25;94.36;98681.20;1649776;86;20425;-82
2022/03/06 09:57:23;;;;;;;;;;;;;;;-0.22;94.28;98683.25;1678148;83;20232;-82
2022/03/06 09:59:50;;;;;;;;;;;;;;;-0.21;94.22;98677.23;1644022;84;25007;-82
2022/03/06 10:02:16;;;;;;;;;;;;;;;-0.19;94.18;98682.34;1649512;84;21926;-82
2022/03/06 10:04:42;;;;;;;;;;;;;;;-0.20;94.08;98678.08;1652448;84;26813;-83
2022/03/06 10:07:10;;;;;;;;;;;;;;;-0.22;93.94;98686.29;1680317;84;24446;-83
2022/03/06 10:09:43;;;;;;;;;;;;;;;-0.18;93.86;98681.48;1652532;85;20259;-82
2022/03/06 10:12:23;;;;;;;;;;;;;;;-0.13;93.88;98677.92;1657800;85;24738;-82
2022/03/06 10:14:50;;;;;;;;;;;;;;;-0.14;93.77;98676.66;1665809;85;22005;-83
2022/03/06 10:17:19;;;;;;;;;;;;;;;-0.15;93.66;98683.52;1666611;84;26022;-82
2022/03/06 10:19:49;;;;;;;;;;;;;;;-0.11;93.58;98679.17;1656758;84;24433;-82
2022/03/06 10:22:15;;;;;;;;;;;;;;;-0.07;93.59;98679.06;1651991;85;20289;-83
2022/03/06 10:25:00;;;;;;;;;;;;;;;-0.07;93.52;98677.78;1653711;85;24754;-84
2022/03/06 10:27:45;;;;;;;;;;;;;;;-0.10;93.38;98686.84;1662937;84;22005;-84
2022/03/06 10:30:28;;;;;;;;;;;;;;;-0.11;93.22;98685.61;1658306;85;26086;-83
2022/03/06 10:32:54;;;;;;;;;;;;;;;-0.15;92.97;98692.53;1655414;84;24497;-83
2022/03/06 10:35:27;;;;;;;;;;;;;;;-0.14;92.85;98681.80;1655721;85;20250;-84
2022/03/06 10:37:53;;;;;;;;;;;;;;;-0.14;92.76;98682.65;1653759;83;25659;-83
2022/03/06 10:40:21;;;;;;;;;;;;;;;-0.21;92.52;98682.37;1672870;84;21955;-83
2022/03/06 10:42:49;;;;;;;;;;;;;;;-0.23;92.28;98680.30;1676912;84;21563;-83
2022/03/06 10:45:23;;;;;;;;;;;;;;;-0.18;92.19;98678.91;1675576;84;25077;-83
2022/03/06 10:47:49;;;;;;;;;;;;;;;-0.16;92.13;98677.97;1676331;84;20241;-83
2022/03/06 10:50:16;;;;;;;;;;;;;;;-0.15;92.09;98669.81;1675398;84;25368;-83
2022/03/06 10:52:44;;;;;;;;;;;;;;;-0.18;91.94;98675.05;1670179;83;22095;-84
2022/03/06 10:55:10;;;;;;;;;;;;;;;-0.21;91.77;98677.23;1676489;83;26646;-83
2022/03/06 10:57:36;;;;;;;;;;;;;;;-0.22;91.62;98675.53;1676902;84;24444;-83
2022/03/06 11:00:04;;;;;;;;;;;;;;;-0.18;91.57;98677.62;1676121;84;20334;-83
2022/03/06 11:02:31;;;;;;;;;;;;;;;-0.19;91.50;98668.20;1676474;84;24754;-82
2022/03/06 11:05:00;;;;;;;;;;;;;;;-0.21;91.34;98672.09;1673247;84;21950;-83
2022/03/06 11:07:29;;;;;;;;;;;;;;;-0.20;91.22;98670.37;1700487;81;25890;-84
2022/03/06 11:09:57;;;;;;;;;;;;;;;-0.21;91.08;98669.95;1693052;81;24101;-84
2022/03/06 11:12:24;;;;;;;;;;;;;;;-0.22;90.94;98664.43;1676120;84;20312;-85
2022/03/06 11:14:50;;;;;;;;;;;;;;;-0.22;90.81;98661.86;1672425;83;24741;-85
2022/03/06 11:17:17;;;;;;;;;;;;;;;-0.24;90.68;98659.75;1674411;83;21985;-84
2022/03/06 11:19:43;;;;;;;;;;;;;;;-0.25;90.56;98656.33;1674289;84;26029;-85
2022/03/06 11:22:19;;;;;;;;;;;;;;;-0.24;90.47;98655.89;1674519;84;24546;-84
2022/03/06 11:24:46;;;;;;;;;;;;;;;-0.26;90.37;98652.06;1674014;84;20276;-84
2022/03/06 11:27:20;;;;;;;;;;;;;;;-0.26;90.29;98646.92;1669025;84;24804;-84
2022/03/06 11:30:07;;;;;;;;;;;;;;;-0.27;90.23;98640.55;1670094;84;22048;-84
2022/03/06 11:32:35;;;;;;;;;;;;;;;-0.23;90.19;98646.02;1673931;84;26178;-84
2022/03/06 11:35:06;;;;;;;;;;;;;;;-0.20;90.16;98641.64;1686662;84;24473;-84
2022/03/06 11:37:38;;;;;;;;;;;;;;;-0.18;90.15;98637.75;1685824;84;20366;-83
2022/03/06 11:40:05;;;;;;;;;;;;;;;-0.18;90.08;98631.33;1687081;83;24180;-85
2022/03/06 11:42:50;;;;;;;;;;;;;;;-0.17;89.98;98631.30;1687436;84;22593;-84
2022/03/06 11:45:37;;;;;;;;;;;;;;;-0.16;89.90;98633.40;1689628;83;27614;-83
2022/03/06 11:48:03;;;;;;;;;;;;;;;-0.15;89.82;98630.80;1689890;84;24566;-82
2022/03/06 11:50:29;;;;;;;;;;;;;;;-0.12;89.73;98635.04;1686203;83;20331;-83
2022/03/06 11:52:56;;;;;;;;;;;;;;;-0.12;89.66;98629.46;1685020;84;25292;-83
2022/03/06 11:55:31;;;;;;;;;;;;;;;-0.13;89.52;98633.34;1688682;84;20740;-83
2022/03/06 11:58:00;;;;;;;;;;;;;;;-0.13;89.41;98625.19;1685238;84;26991;-83
2022/03/06 12:00:28;;;;;;;;;;;;;;;-0.12;89.30;98632.47;1686152;83;25313;-83
2022/03/06 12:02:56;;;;;;;;;;;;;;;-0.14;89.16;98629.92;1687269;84;20505;-83
2022/03/06 12:05:23;;;;;;;;;;;;;;;-0.17;88.95;98625.31;1685371;84;24744;-83
2022/03/06 12:07:51;;;;;;;;;;;;;;;-0.20;88.72;98621.50;1681077;84;21050;-85
2022/03/06 12:10:18;;;;;;;;;;;;;;;-0.24;88.49;98616.04;1681915;83;25981;-84
2022/03/06 12:12:46;;;;;;;;;;;;;;;-0.26;88.24;98616.50;1689264;83;24443;-84
2022/03/06 12:15:14;;;;;;;;;;;;;;;-0.27;88.07;98617.41;1654014;85;20750;-84
2022/03/06 12:17:40;;;;;;;;;;;;;;;-0.25;87.94;98613.05;1688898;83;24930;-84
2022/03/06 12:20:11;;;;;;;;;;;;;;;-0.20;87.91;98609.49;1688672;84;22612;-84
2022/03/06 12:22:45;;;;;;;;;;;;;;;-0.19;87.86;98609.91;1688803;82;26733;-85
2022/03/06 12:25:14;;;;;;;;;;;;;;;-0.20;87.77;98606.92;1688479;84;24414;-85
2022/03/06 12:27:41;;;;;;;;;;;;;;;-0.18;87.70;98607.74;1685545;84;20230;-85
2022/03/06 12:30:11;;;;;;;;;;;;;;;-0.14;87.69;98597.78;1685769;84;24741;-84
2022/03/06 12:32:40;;;;;;;;;;;;;;;-0.14;87.59;98602.92;1680408;84;22078;-83
2022/03/06 12:35:08;;;;;;;;;;;;;;;-0.13;87.50;98586.61;1684958;83;26012;-83
2022/03/06 12:37:35;;;;;;;;;;;;;;;-0.14;87.37;98586.20;1685853;83;24525;-84
2022/03/06 12:40:05;;;;;;;;;;;;;;;-0.15;87.26;98584.51;1683560;85;20308;-85
2022/03/06 12:42:32;;;;;;;;;;;;;;;-0.15;87.12;98583.22;1682961;85;25512;-84
2022/03/06 12:45:02;;;;;;;;;;;;;;;-0.15;87.00;98583.22;1717228;81;21677;-84